Delta Poseidon — SVBF6 — position and weather

sailwx.info

Track history (hours):
 
Tides and Currents Weather Stations Pressure Air Temp Water Temp Dewpoint Dewpoint Depression Visibility Wind Speed Wind Dir Waves Ship Positions

Delta Poseidon

Last reported at 2016-Apr-18 10:05 UTC. Time now 2016-Apr-30 05:17 UTC.
Position N 30°48' E 032°19'.
Warning: this ship's position is 11 days out of date.

Length 274 m; draft 15.5 m.

Type: Tanker. MMSI: 241086000.

Date/timePositionNaut miles runAvg speedWind from/ knotsBaromVisibWave heightAir tempDewpointWater temp
2016-Apr-18 10:05N 30°48' E 032°19'5 8.8
2016-Apr-18 09:30N 30°53' E 032°19'8 8.6
2016-Apr-18 08:33N 31°01' E 032°19'9 9.1
2016-Apr-18 07:32N 31°10' E 032°20'14 9.7
2016-Apr-18 06:03N 31°24' E 032°24'5 3.2
2016-Apr-18 04:33N 31°28' E 032°20'2 0.8
2016-Apr-18 02:04N 31°28' E 032°18'0 0.0
2016-Apr-17 23:28N 31°28' E 032°18'0 0.0
2016-Apr-17 22:31N 31°28' E 032°18'0 0.0
2016-Apr-17 19:33N 31°28' E 032°18'5 4.8
2016-Apr-17 18:33N 31°31' E 032°14'1110.6
2016-Apr-17 17:33N 31°39' E 032°05'1211.7
2016-Apr-17 16:33N 31°46' E 031°55'1312.7
2016-Apr-17 15:33N 31°55' E 031°43'1212.5
2016-Apr-17 14:33N 32°02' E 031°32'1212.4
2016-Apr-17 13:33N 32°10' E 031°20'1412.5
2016-Apr-17 12:27N 32°19' E 031°08'1112.5
2016-Apr-17 11:33N 32°23' E 030°55'1312.7
2016-Apr-17 10:33N 32°27' E 030°41'1312.7
2016-Apr-17 09:33N 32°30' E 030°26'1211.7
2016-Apr-17 08:33N 32°33' E 030°13'1210.3
2016-Apr-17 07:26N 32°35' E 029°59'3612.5
2016-Apr-17 04:33N 32°44' E 029°18'1212.2
2016-Apr-17 03:33N 32°47' E 029°04'1212.5
2016-Apr-17 02:33N 32°50' E 028°50'1312.8
2016-Apr-17 01:33N 32°54' E 028°35'1313.1
2016-Apr-17 00:32N 32°57' E 028°20'1413.4
2016-Apr-16 23:28N 33°01' E 028°03'1213.7
2016-Apr-16 22:33N 33°03' E 027°49'1913.2
2016-Apr-16 21:06N 33°08' E 027°27'813.0
2016-Apr-16 20:29N 33°10' E 027°17'1313.0
2016-Apr-16 19:29N 33°13' E 027°02'1413.0
2016-Apr-16 18:24N 33°17' E 026°46'18513.0
2016-Apr-16 04:07N 34°04' E 023°11'36912.7
2016-Apr-14 23:08N 35°56' E 016°01'712.2
2016-Apr-14 22:32N 35°59' E 015°53'4912.2
2016-Apr-14 18:33N 36°14' E 014°55'1212.1
2016-Apr-14 17:33N 36°17' E 014°41'1212.3
2016-Apr-14 16:33N 36°21' E 014°27'1212.4
2016-Apr-14 15:34N 36°25' E 014°12'1312.6
2016-Apr-14 14:34N 36°29' E 013°57'1312.7
2016-Apr-14 13:33N 36°33' E 013°42'1212.2
2016-Apr-14 12:34N 36°36' E 013°27'1212.5
2016-Apr-14 11:34N 36°40' E 013°13'1312.7
2016-Apr-14 10:34N 36°44' E 012°58'1212.5
2016-Apr-14 09:34N 36°48' E 012°43'47712.5
2016-Apr-12 19:19N 37°04' E 002°46'1013.3
2016-Apr-12 18:33N 37°02' E 002°34'9212.9
2016-Apr-12 11:26N 36°37' E 000°43'  
2016-Apr-09 21:18N 36°02' W 000°08'810.4
2016-Apr-09 20:34N 36°09' W 000°06'10 9.9
2016-Apr-09 19:33N 36°19' W 000°02'7 7.0
2016-Apr-09 18:32N 36°26' E 000°01'1 1.5
2016-Apr-09 17:33N 36°25' W 000°00'2 1.8
2016-Apr-09 16:33N 36°24' W 000°02'4 1.8
2016-Apr-09 14:10N 36°21' W 000°06'1 1.6
2016-Apr-09 13:33N 36°20' W 000°07'2 1.4
2016-Apr-09 12:06N 36°18' W 000°08'1 1.2
2016-Apr-09 11:10N 36°17' W 000°09'  
Track history (hours):
 
Tides and Currents Weather Stations Pressure Air Temp Water Temp Dewpoint Dewpoint Depression Visibility Wind Speed Wind Dir Waves Ship Positions

Delta Poseidon

Last reported at 2016-Apr-18 10:05 UTC. Time now 2016-Apr-30 05:17 UTC.
Position N 30°48' E 032°19'.
Warning: this ship's position is 11 days out of date.

Length 274 m; draft 15.5 m.

Type: Tanker. MMSI: 241086000.

Date/timePositionNaut miles runAvg speedWind from/ knotsBaromVisibWave heightAir tempDewpointWater temp
2016-Apr-18 10:05N 30°48' E 032°19'5 8.8
2016-Apr-18 09:30N 30°53' E 032°19'8 8.6
2016-Apr-18 08:33N 31°01' E 032°19'9 9.1
2016-Apr-18 07:32N 31°10' E 032°20'14 9.7
2016-Apr-18 06:03N 31°24' E 032°24'5 3.2
2016-Apr-18 04:33N 31°28' E 032°20'2 0.8
2016-Apr-18 02:04N 31°28' E 032°18'0 0.0
2016-Apr-17 23:28N 31°28' E 032°18'0 0.0
2016-Apr-17 22:31N 31°28' E 032°18'0 0.0
2016-Apr-17 19:33N 31°28' E 032°18'5 4.8
2016-Apr-17 18:33N 31°31' E 032°14'1110.6
2016-Apr-17 17:33N 31°39' E 032°05'1211.7
2016-Apr-17 16:33N 31°46' E 031°55'1312.7
2016-Apr-17 15:33N 31°55' E 031°43'1212.5
2016-Apr-17 14:33N 32°02' E 031°32'1212.4
2016-Apr-17 13:33N 32°10' E 031°20'1412.5
2016-Apr-17 12:27N 32°19' E 031°08'1112.5
2016-Apr-17 11:33N 32°23' E 030°55'1312.7
2016-Apr-17 10:33N 32°27' E 030°41'1312.7
2016-Apr-17 09:33N 32°30' E 030°26'1211.7
2016-Apr-17 08:33N 32°33' E 030°13'1210.3
2016-Apr-17 07:26N 32°35' E 029°59'3612.5
2016-Apr-17 04:33N 32°44' E 029°18'1212.2
2016-Apr-17 03:33N 32°47' E 029°04'1212.5
2016-Apr-17 02:33N 32°50' E 028°50'1312.8
2016-Apr-17 01:33N 32°54' E 028°35'1313.1
2016-Apr-17 00:32N 32°57' E 028°20'1413.4
2016-Apr-16 23:28N 33°01' E 028°03'1213.7
2016-Apr-16 22:33N 33°03' E 027°49'1913.2
2016-Apr-16 21:06N 33°08' E 027°27'813.0
2016-Apr-16 20:29N 33°10' E 027°17'1313.0
2016-Apr-16 19:29N 33°13' E 027°02'1413.0
2016-Apr-16 18:24N 33°17' E 026°46'18513.0
2016-Apr-16 04:07N 34°04' E 023°11'36912.7
2016-Apr-14 23:08N 35°56' E 016°01'712.2
2016-Apr-14 22:32N 35°59' E 015°53'4912.2
2016-Apr-14 18:33N 36°14' E 014°55'1212.1
2016-Apr-14 17:33N 36°17' E 014°41'1212.3
2016-Apr-14 16:33N 36°21' E 014°27'1212.4
2016-Apr-14 15:34N 36°25' E 014°12'1312.6
2016-Apr-14 14:34N 36°29' E 013°57'1312.7
2016-Apr-14 13:33N 36°33' E 013°42'1212.2
2016-Apr-14 12:34N 36°36' E 013°27'1212.5
2016-Apr-14 11:34N 36°40' E 013°13'1312.7
2016-Apr-14 10:34N 36°44' E 012°58'1212.5
2016-Apr-14 09:34N 36°48' E 012°43'47712.5
2016-Apr-12 19:19N 37°04' E 002°46'1013.3
2016-Apr-12 18:33N 37°02' E 002°34'9212.9
2016-Apr-12 11:26N 36°37' E 000°43'  
2016-Apr-09 21:18N 36°02' W 000°08'810.4
2016-Apr-09 20:34N 36°09' W 000°06'10 9.9
2016-Apr-09 19:33N 36°19' W 000°02'7 7.0
2016-Apr-09 18:32N 36°26' E 000°01'1 1.5
2016-Apr-09 17:33N 36°25' W 000°00'2 1.8
2016-Apr-09 16:33N 36°24' W 000°02'4 1.8
2016-Apr-09 14:10N 36°21' W 000°06'1 1.6
2016-Apr-09 13:33N 36°20' W 000°07'2 1.4
2016-Apr-09 12:06N 36°18' W 000°08'1 1.2
2016-Apr-09 11:10N 36°17' W 000°09'  

Dump ship's entire track history